WetterOnline ( http://www.wetteronline.ch )

Wetter aktuell Marnitz

Aktuelles Wetter: Marnitz (87m)

6-stündlich | Neueste Meldungen
Ortszeit Temperatur Wetter
Di, 19.03. 7:00 1.7° C wolkenlos
Di, 19.03. 1:00 3.1° C bewölkt
Mo, 18.03. 19:00 4.4° C wolkig
Mo, 18.03. 13:00 7.2° C bewölkt
Mo, 18.03. 7:00 4.0° C bewölkt
Mo, 18.03. 1:00 3.4° C wolkenlos
So, 17.03. 19:00 4.5° C leicht bewölkt
So, 17.03. 13:00 7.1° C Regen
Ortszeit Temperatur Wetter
Di, 19.03. 9:00 4.0° C leicht bewölkt
Di, 19.03. 8:50 4.0° C leicht bewölkt
Di, 19.03. 8:40 3.8° C leicht bewölkt
Di, 19.03. 8:30 3.2° C leicht bewölkt
Di, 19.03. 8:20 3.2° C leicht bewölkt
Di, 19.03. 8:10 2.9° C wolkenlos
Di, 19.03. 8:00 2.3° C wolkenlos
Di, 19.03. 7:30 1.7° C wolkenlos
Di, 19.03. 7:00 1.7° C wolkenlos
Di, 19.03. 6:30 1.7° C wolkenlos
Di, 19.03. 6:00 1.9° C wolkig
Ortszeit Relative Feuchte Sichtweite
Di, 19.03. 7:00 87% 30 km
Di, 19.03. 1:00 82% 30 km
Mo, 18.03. 19:00 77% 40 km
Mo, 18.03. 13:00 69% 40 km
Mo, 18.03. 7:00 80% 40 km
Mo, 18.03. 1:00 76% 70 km
So, 17.03. 19:00 86% 70 km
So, 17.03. 13:00 81% 70 km
Ortszeit Relative Feuchte Sichtweite
Di, 19.03. 9:00 78% 35 km
Di, 19.03. 8:50 78% -
Di, 19.03. 8:40 80% -
Di, 19.03. 8:30 81% 35 km
Di, 19.03. 8:20 81% -
Di, 19.03. 8:10 82% -
Di, 19.03. 8:00 84% 30 km
Di, 19.03. 7:30 88% 30 km
Di, 19.03. 7:00 87% 30 km
Di, 19.03. 6:30 85% 35 km
Di, 19.03. 6:00 85% 35 km
Ortszeit Niederschlagsmenge Niederschlagsart
Di, 19.03. 7:00 0.0 l/m2 in 12 Std. -
Di, 19.03. 1:00 0.0 l/m2 in 6 Std. -
Mo, 18.03. 19:00 0.1 l/m2 in 12 Std. Regen
Mo, 18.03. 13:00 0.1 l/m2 in 6 Std. Regen
Mo, 18.03. 7:00 0.1 l/m2 in 12 Std. Regen
Mo, 18.03. 1:00 0.0 l/m2 in 6 Std. -
So, 17.03. 19:00 3 l/m2 in 12 Std. Schnee, Regen
So, 17.03. 13:00 0.7 l/m2 in 6 Std. Regen
Ortszeit Niederschlagsmenge Niederschlagsart
Di, 19.03. 9:00 0.0 l/m2 in 1 Std. -
Di, 19.03. 8:50 keine Meldung -
Di, 19.03. 8:40 keine Meldung -
Di, 19.03. 8:30 0.0 l/m2 in 1 Std. -
Di, 19.03. 8:20 keine Meldung -
Di, 19.03. 8:10 keine Meldung -
Di, 19.03. 8:00 0.0 l/m2 in 1 Std. -
Di, 19.03. 7:30 0.0 l/m2 in 1 Std. -
Di, 19.03. 7:00 0.0 l/m2 in 1 Std. -
Di, 19.03. 6:30 0.0 l/m2 in 1 Std. -
Di, 19.03. 6:00 0.0 l/m2 in 1 Std. -
Ortszeit Stärke Spitze Richtung
km/h Bft. km/h Grad Sektor
Di, 19.03. 7:00 13 3 33 290° W
Di, 19.03. 1:00 17 3 43 300° NW
Mo, 18.03. 19:00 24 4 61 300° NW
Mo, 18.03. 13:00 29 5 58 290° W
Mo, 18.03. 7:00 22 4 54 260° W
Mo, 18.03. 1:00 20 4 35 250° W
So, 17.03. 19:00 15 3 56 260° W
So, 17.03. 13:00 14 3 58 280° W
Ortszeit Stärke Spitze Richtung
km/h Bft. km/h Grad Sektor
Di, 19.03. 9:00 14 3 25 280° W
Di, 19.03. 8:50 14 3 - 280° W
Di, 19.03. 8:40 11 2 - 280° W
Di, 19.03. 8:30 14 3 25 270° W
Di, 19.03. 8:20 14 3 - 270° W
Di, 19.03. 8:10 14 3 - 270° W
Di, 19.03. 8:00 15 3 22 270° W
Di, 19.03. 7:30 14 3 22 260° W
Di, 19.03. 7:00 13 3 26 290° W
Di, 19.03. 6:30 13 3 26 290° W
Di, 19.03. 6:00 15 3 26 290° W
Ortszeit Untergrenze Bedeckung Gattung
total tief tief mittel hoch
Di, 19.03. 7:00 - 0/8 0/8 - - -
Di, 19.03. 1:00 1110 m 7/8 7/8 - - -
Mo, 18.03. 19:00 660 m 5/8 5/8 - - -
Mo, 18.03. 13:00 660 m 7/8 7/8 - - -
Mo, 18.03. 7:00 510 m 7/8 7/8 - - -
Mo, 18.03. 1:00 - 0/8 0/8 - - -
So, 17.03. 19:00 4500 m 2/8 2/8 - - -
So, 17.03. 13:00 720 m 8/8 8/8 - - -
Ortszeit Bedeckungsgrad in Achtel und Wolkenuntergrenze
Di, 19.03. 9:00 1(750m) 3(1200m)
Di, 19.03. 8:50 1(750m) 2(960m) 3(1200m)
Di, 19.03. 8:40 2(750m)
Di, 19.03. 8:30 2(750m)
Di, 19.03. 8:20 2(750m)
Di, 19.03. 8:10 keine Wolken
Di, 19.03. 8:00 keine Wolken
Di, 19.03. 7:30 keine Wolken
Di, 19.03. 7:00 keine Wolken
Di, 19.03. 6:30 keine Wolken
Di, 19.03. 6:00 5(720m)
Ortszeit Luftdruck NN (hPa) Tendenz (hPa in 3 Std.)
Di, 19.03. 7:00 1022 + 1,8
Di, 19.03. 1:00 1018 + 1,9
Mo, 18.03. 19:00 1014 + 3,0
Mo, 18.03. 13:00 1009 + 1,9
Mo, 18.03. 7:00 1005 + 1,5
Mo, 18.03. 1:00 1004 + 1,1
So, 17.03. 19:00 1002 + 2,7
So, 17.03. 13:00 998 + 2,3
Ortszeit Luftdruck NN (hPa) Tendenz (hPa in 3 Std.)
Di, 19.03. 9:00 1023 + 2,0
Di, 19.03. 8:50 1023 keine Meldung
Di, 19.03. 8:40 1023 keine Meldung
Di, 19.03. 8:30 1023 + 2,0
Di, 19.03. 8:20 1023 keine Meldung
Di, 19.03. 8:10 1023 keine Meldung
Di, 19.03. 8:00 1023 + 2,1
Di, 19.03. 7:30 1023 + 2,0
Di, 19.03. 7:00 1022 + 1,8
Di, 19.03. 6:30 1022 + 2,0
Di, 19.03. 6:00 1022 + 1,9
Ortszeit Schneehöhe (cm)
Di, 19.03. 7:00 0
Di, 19.03. 1:00 0
Mo, 18.03. 19:00 0
Mo, 18.03. 13:00 0
Mo, 18.03. 7:00 0
Mo, 18.03. 1:00 0
So, 17.03. 19:00 0
So, 17.03. 13:00 0
Ortszeit Schneehöhe (cm)
Di, 19.03. 9:00 0
Di, 19.03. 8:50 0
Di, 19.03. 8:40 0
Di, 19.03. 8:30 0
Di, 19.03. 8:20 0
Di, 19.03. 8:10 0
Di, 19.03. 8:00 0
Di, 19.03. 7:30 0
Di, 19.03. 7:00 0
Di, 19.03. 6:30 0
Di, 19.03. 6:00 0
Link zu dieser Seite / Seite empfehlen

Das Wetter in ...